Time;durP1;ratioP1;P1;durP2;ratioP2;P2;SDS_P1;SDS_P2;PMS_P1;PMS_P2;Temp;Humidity;BMP_temperature;BMP_pressure;BME280_temperature;BME280_humidity;BME280_pressure;Samples;Min_cycle;Max_cycle;Signal;HPM_P1;HPM_P2
2024/02/19 00:01:10;;;;;;;1999.90;999.90;;;11.90;99.90;;;;;;5034739;28;20033;-78
2024/02/19 00:03:36;;;;;;;1999.90;999.90;;;11.80;99.90;;;;;;5034469;28;20052;-78
2024/02/19 00:06:04;;;;;;;1999.90;999.90;;;11.90;99.90;;;;;;5035073;28;20063;-78
2024/02/19 00:08:30;;;;;;;1999.90;999.90;;;11.80;99.90;;;;;;5035097;28;20033;-78
2024/02/19 00:10:56;;;;;;;1999.90;999.90;;;11.80;99.90;;;;;;5033119;28;20037;-78
2024/02/19 00:13:23;;;;;;;1999.90;999.90;;;11.90;99.90;;;;;;5032973;28;20044;-78
2024/02/19 00:15:50;;;;;;;1999.90;999.90;;;12.00;99.90;;;;;;5034160;28;20380;-78
2024/02/19 00:18:16;;;;;;;1999.90;999.90;;;11.90;99.90;;;;;;5034738;28;20042;-77
2024/02/19 00:20:42;;;;;;;1999.90;999.90;;;11.90;99.90;;;;;;5032386;28;20042;-78
2024/02/19 00:23:08;;;;;;;1999.90;999.90;;;11.80;99.90;;;;;;5034612;28;20394;-78
2024/02/19 00:25:35;;;;;;;1999.90;999.90;;;11.90;99.90;;;;;;5034587;28;20037;-77
2024/02/19 00:28:01;;;;;;;1999.90;999.90;;;11.80;99.90;;;;;;5033105;28;20041;-77
2024/02/19 00:30:27;;;;;;;1554.93;801.72;;;11.90;99.90;;;;;;5034130;28;20034;-77
2024/02/19 00:32:53;;;;;;;1999.90;999.90;;;11.90;99.90;;;;;;5033135;28;20386;-77
2024/02/19 00:35:21;;;;;;;1999.90;999.90;;;12.00;99.90;;;;;;5034660;28;20025;-78
2024/02/19 00:37:51;;;;;;;1999.90;999.90;;;12.10;99.90;;;;;;5033781;28;20060;-77
2024/02/19 00:40:18;;;;;;;1999.90;999.90;;;12.00;99.90;;;;;;5034499;28;20025;-77
2024/02/19 00:42:46;;;;;;;1999.90;999.90;;;12.10;99.90;;;;;;5034510;28;20753;-77
2024/02/19 00:45:12;;;;;;;1999.90;999.90;;;12.20;99.90;;;;;;5033880;28;20466;-77
2024/02/19 00:47:39;;;;;;;1999.90;999.90;;;12.20;99.90;;;;;;5034256;28;20048;-78
2024/02/19 00:50:05;;;;;;;1999.90;999.90;;;12.10;99.90;;;;;;5034336;28;20040;-78
2024/02/19 00:52:31;;;;;;;1999.90;999.90;;;12.20;99.90;;;;;;5033547;28;20390;-78
2024/02/19 00:54:57;;;;;;;1999.90;999.90;;;12.10;99.90;;;;;;5034541;28;20029;-77
2024/02/19 00:57:24;;;;;;;1999.90;999.90;;;12.10;99.90;;;;;;5033803;28;20045;-78
2024/02/19 00:59:50;;;;;;;1999.90;999.90;;;12.00;99.90;;;;;;5034498;28;20037;-77
2024/02/19 01:02:16;;;;;;;1999.90;999.90;;;11.90;99.90;;;;;;5032052;28;20029;-77
2024/02/19 01:04:43;;;;;;;920.13;642.03;;;11.90;99.90;;;;;;5033286;28;20056;-77
2024/02/19 01:07:09;;;;;;;477.58;446.33;;;11.90;99.90;;;;;;5033710;28;20030;-77
2024/02/19 01:09:35;;;;;;;534.00;499.92;;;11.80;99.90;;;;;;5033374;28;20060;-77
2024/02/19 01:12:01;;;;;;;847.00;574.78;;;11.80;99.90;;;;;;5033577;28;20049;-77
2024/02/19 01:14:27;;;;;;;1999.90;999.90;;;11.80;99.90;;;;;;5034191;28;20656;-77
2024/02/19 01:16:53;;;;;;;1999.90;999.90;;;11.90;99.90;;;;;;5033466;28;20049;-77
2024/02/19 01:19:20;;;;;;;1999.90;999.90;;;12.00;99.90;;;;;;5033796;28;20026;-77
2024/02/19 01:21:47;;;;;;;1999.90;999.90;;;12.00;99.90;;;;;;5033548;28;20032;-77
2024/02/19 01:24:13;;;;;;;1999.90;999.90;;;12.10;99.90;;;;;;5033232;28;20049;-77
2024/02/19 01:26:39;;;;;;;1999.90;999.90;;;12.10;99.90;;;;;;5033754;28;20037;-77
2024/02/19 01:29:05;;;;;;;1999.90;999.90;;;12.00;99.90;;;;;;5033952;28;20068;-77
2024/02/19 01:31:31;;;;;;;344.25;324.42;;;12.00;99.90;;;;;;5033068;28;20045;-77
2024/02/19 01:33:57;;;;;;;1999.90;999.90;;;12.00;99.90;;;;;;5031592;28;20375;-77
2024/02/19 01:36:24;;;;;;;1999.90;999.90;;;11.90;99.90;;;;;;5032231;28;20028;-77
2024/02/19 01:38:52;;;;;;;1999.90;999.90;;;11.90;99.90;;;;;;5032924;28;20037;-77
2024/02/19 01:41:18;;;;;;;1999.90;999.90;;;12.00;99.90;;;;;;5033726;28;20134;-77
2024/02/19 01:43:44;;;;;;;1999.90;999.90;;;12.10;99.90;;;;;;5032875;28;20021;-77
2024/02/19 01:46:10;;;;;;;1999.90;999.90;;;12.20;99.90;;;;;;5032887;28;20036;-76
2024/02/19 01:48:36;;;;;;;1999.90;999.90;;;12.20;99.90;;;;;;5032055;28;20481;-77
2024/02/19 01:51:02;;;;;;;1999.90;999.90;;;12.20;99.90;;;;;;5031817;28;20025;-77
2024/02/19 01:53:29;;;;;;;1999.90;999.90;;;12.20;99.90;;;;;;5033315;28;20480;-76
2024/02/19 01:55:55;;;;;;;1999.90;999.90;;;12.20;99.90;;;;;;5033142;28;20029;-77
2024/02/19 01:58:21;;;;;;;1999.90;999.90;;;12.20;99.90;;;;;;5033069;28;20060;-77
2024/02/19 02:00:47;;;;;;;1999.90;999.90;;;12.20;99.90;;;;;;5032580;28;20026;-77
2024/02/19 02:03:15;;;;;;;479.45;449.30;;;12.20;99.90;;;;;;5032380;28;20498;-77
2024/02/19 02:05:41;;;;;;;413.58;388.35;;;12.10;99.90;;;;;;5031653;28;20041;-77
2024/02/19 02:08:07;;;;;;;1999.90;999.90;;;12.00;99.90;;;;;;5033229;28;20029;-76
2024/02/19 02:10:33;;;;;;;1999.90;999.90;;;12.00;99.90;;;;;;5032307;28;20056;-77
2024/02/19 02:12:59;;;;;;;1999.90;999.90;;;12.00;99.90;;;;;;5032432;28;20037;-77
2024/02/19 02:15:26;;;;;;;1999.90;999.90;;;12.00;99.90;;;;;;5032371;28;20363;-77
2024/02/19 02:17:52;;;;;;;1999.90;999.90;;;12.00;99.90;;;;;;5032654;28;20041;-77
2024/02/19 02:20:18;;;;;;;1999.90;999.90;;;11.90;99.90;;;;;;5032633;28;20048;-77
2024/02/19 02:22:44;;;;;;;1999.90;999.90;;;11.90;99.90;;;;;;5032648;28;20033;-77
2024/02/19 02:25:11;;;;;;;1999.90;999.90;;;11.80;99.90;;;;;;5032257;28;20065;-77
2024/02/19 02:27:37;;;;;;;1999.90;999.90;;;11.80;99.90;;;;;;5013079;28;20030;-76
2024/02/19 02:30:05;;;;;;;1999.90;999.90;;;11.80;99.90;;;;;;5043959;28;20042;-77
2024/02/19 02:32:33;;;;;;;1999.90;999.90;;;11.90;99.90;;;;;;5032026;28;20034;-77
2024/02/19 02:34:59;;;;;;;1999.90;999.90;;;11.90;99.90;;;;;;5032430;28;20033;-76
2024/02/19 02:37:26;;;;;;;1999.90;999.90;;;11.80;99.90;;;;;;5014339;28;20071;-77
2024/02/19 02:39:53;;;;;;;1999.90;999.90;;;11.90;99.90;;;;;;5032186;28;20025;-77
2024/02/19 02:42:19;;;;;;;1999.90;999.90;;;11.90;99.90;;;;;;5030074;28;20045;-77
2024/02/19 02:44:45;;;;;;;1999.90;999.90;;;12.00;99.90;;;;;;5032544;28;20044;-77
2024/02/19 02:47:11;;;;;;;1999.90;999.90;;;12.10;99.90;;;;;;5031460;28;20048;-77
2024/02/19 02:49:37;;;;;;;1999.90;999.90;;;12.10;99.90;;;;;;5032510;28;20406;-77
2024/02/19 02:52:04;;;;;;;1999.90;999.90;;;12.00;99.90;;;;;;5032123;28;20029;-77
2024/02/19 02:54:30;;;;;;;1999.90;999.90;;;11.90;99.90;;;;;;5031180;28;20026;-77
2024/02/19 02:56:56;;;;;;;1999.90;999.90;;;11.90;99.90;;;;;;5031501;28;20394;-77
2024/02/19 02:59:22;;;;;;;1999.90;999.90;;;11.90;99.90;;;;;;5032420;28;20036;-77
2024/02/19 03:01:48;;;;;;;1999.90;999.90;;;12.00;99.90;;;;;;5028485;28;20037;-77
2024/02/19 03:04:14;;;;;;;1999.90;999.90;;;12.10;99.90;;;;;;5027245;28;20060;-77
2024/02/19 03:06:40;;;;;;;1999.90;999.90;;;12.10;99.90;;;;;;5024742;28;20070;-77
2024/02/19 03:09:07;;;;;;;1999.90;999.90;;;12.20;99.90;;;;;;5030797;28;20061;-77
2024/02/19 03:11:33;;;;;;;1999.90;999.90;;;12.10;99.90;;;;;;5030521;28;20045;-77
2024/02/19 03:13:59;;;;;;;1999.90;999.90;;;12.00;99.90;;;;;;5030740;28;20131;-77
2024/02/19 03:16:25;;;;;;;1999.90;999.90;;;12.10;99.90;;;;;;5029094;28;20029;-76
2024/02/19 03:18:53;;;;;;;1999.90;999.90;;;12.20;99.90;;;;;;5030781;28;20029;-76
2024/02/19 03:21:19;;;;;;;1999.90;999.90;;;12.30;99.90;;;;;;5030086;28;20041;-77
2024/02/19 03:23:51;;;;;;;1999.90;999.90;;;12.40;99.90;;;;;;5030445;28;20037;-77
2024/02/19 03:26:24;;;;;;;1999.90;999.90;;;12.30;99.90;;;;;;5030635;28;20060;-76
2024/02/19 03:28:50;;;;;;;1999.90;999.90;;;12.30;99.90;;;;;;5030959;28;20374;-76
2024/02/19 03:31:17;;;;;;;1999.90;999.90;;;12.40;99.90;;;;;;5029865;28;20034;-76
2024/02/19 03:33:43;;;;;;;1999.90;999.90;;;12.40;99.90;;;;;;5030162;28;20026;-77
2024/02/19 03:36:09;;;;;;;1999.90;999.90;;;12.40;99.90;;;;;;5031189;28;20369;-76
2024/02/19 03:38:36;;;;;;;1999.90;999.90;;;12.40;99.90;;;;;;5030526;28;20025;-77
2024/02/19 03:41:07;;;;;;;1999.90;999.90;;;12.50;99.90;;;;;;5031069;28;20375;-76
2024/02/19 03:43:34;;;;;;;1999.90;999.90;;;12.40;99.90;;;;;;5030414;28;20045;-76
2024/02/19 03:46:04;;;;;;;1999.90;999.90;;;12.30;99.90;;;;;;5030692;28;20041;-76
2024/02/19 03:48:33;;;;;;;1999.90;999.90;;;12.20;99.90;;;;;;5031398;28;20042;-77
2024/02/19 03:50:59;;;;;;;1999.90;999.90;;;12.20;99.90;;;;;;5031457;28;20044;-76
2024/02/19 03:53:25;;;;;;;1999.90;999.90;;;12.20;99.90;;;;;;5031839;28;20022;-76
2024/02/19 03:55:55;;;;;;;1999.90;999.90;;;12.20;99.90;;;;;;5031144;28;20108;-77
2024/02/19 03:58:21;;;;;;;1999.90;999.90;;;12.30;99.90;;;;;;5031750;28;20045;-76
2024/02/19 04:00:47;;;;;;;1999.90;999.90;;;12.30;99.90;;;;;;5030395;28;20030;-77
2024/02/19 04:03:13;;;;;;;1999.90;999.90;;;12.30;99.90;;;;;;5031748;28;20033;-77
2024/02/19 04:05:39;;;;;;;1583.90;829.00;;;12.20;99.90;;;;;;5031021;28;20501;-76
2024/02/19 04:08:06;;;;;;;345.17;324.95;;;12.20;99.90;;;;;;5034776;28;20026;-77
2024/02/19 04:10:32;;;;;;;308.10;290.30;;;12.20;99.90;;;;;;5033784;28;20037;-77
2024/02/19 04:12:58;;;;;;;279.60;263.98;;;12.20;99.90;;;;;;5035230;28;20386;-76
2024/02/19 04:15:24;;;;;;;1999.90;999.90;;;12.20;99.90;;;;;;5034223;28;20033;-77
2024/02/19 04:17:50;;;;;;;1140.55;632.65;;;12.10;99.90;;;;;;5035117;28;20018;-77
2024/02/19 04:20:16;;;;;;;270.15;255.20;;;12.10;99.90;;;;;;5034933;28;20033;-76
2024/02/19 04:22:42;;;;;;;720.92;458.35;;;12.20;99.90;;;;;;5035100;28;20450;-77
2024/02/19 04:25:09;;;;;;;237.13;224.23;;;12.20;99.90;;;;;;5034599;28;20040;-77
2024/02/19 04:27:35;;;;;;;252.90;238.93;;;12.20;99.90;;;;;;5014973;28;20388;-76
2024/02/19 04:30:01;;;;;;;301.98;284.45;;;12.20;99.90;;;;;;5015215;28;20030;-76
2024/02/19 04:32:27;;;;;;;266.02;251.38;;;12.10;99.90;;;;;;5032985;28;20033;-76
2024/02/19 04:34:55;;;;;;;224.15;210.82;;;12.10;99.90;;;;;;5037925;28;20029;-76
2024/02/19 04:37:21;;;;;;;1999.90;999.90;;;12.10;99.90;;;;;;5035160;28;20060;-77
2024/02/19 04:39:47;;;;;;;1999.90;999.90;;;12.10;99.90;;;;;;5034727;28;20388;-76
2024/02/19 04:42:14;;;;;;;1999.90;999.90;;;12.10;99.90;;;;;;5033672;28;20053;-77
2024/02/19 04:44:40;;;;;;;1999.90;999.90;;;11.90;99.90;;;;;;5033501;28;20037;-76
2024/02/19 04:47:06;;;;;;;1999.90;999.90;;;11.90;99.90;;;;;;5033788;28;20037;-77
2024/02/19 04:49:32;;;;;;;338.42;319.42;;;11.90;99.90;;;;;;5032532;28;20042;-76
2024/02/19 04:51:58;;;;;;;307.80;290.65;;;11.80;99.90;;;;;;5032374;28;20033;-76
2024/02/19 04:54:24;;;;;;;247.77;233.65;;;11.80;99.90;;;;;;5034474;28;20033;-76
2024/02/19 04:56:50;;;;;;;224.98;212.20;;;11.70;99.90;;;;;;5032575;28;20044;-76
2024/02/19 04:59:17;;;;;;;246.48;232.55;;;11.70;99.90;;;;;;5034566;28;20033;-76
2024/02/19 05:01:43;;;;;;;205.23;194.30;;;11.80;99.90;;;;;;5033091;28;20038;-77
2024/02/19 05:04:11;;;;;;;194.80;184.10;;;11.80;99.90;;;;;;5033980;28;20021;-76
2024/02/19 05:06:37;;;;;;;216.55;204.98;;;11.80;99.90;;;;;;5033993;28;20041;-76
2024/02/19 05:09:03;;;;;;;269.45;254.65;;;11.80;99.90;;;;;;5034309;28;20477;-76
2024/02/19 05:11:30;;;;;;;278.73;263.15;;;11.70;99.90;;;;;;5033527;28;20036;-76
2024/02/19 05:13:56;;;;;;;255.43;241.05;;;11.70;99.90;;;;;;5032999;28;20029;-77
2024/02/19 05:16:22;;;;;;;264.75;249.93;;;11.70;99.90;;;;;;5033322;28;20044;-77
2024/02/19 05:18:49;;;;;;;258.42;244.07;;;11.70;99.90;;;;;;5033212;28;20397;-76
2024/02/19 05:21:15;;;;;;;249.60;236.02;;;11.70;99.90;;;;;;5033746;28;20041;-76
2024/02/19 05:23:42;;;;;;;254.48;240.48;;;11.70;99.90;;;;;;5033844;28;20690;-77
2024/02/19 05:26:08;;;;;;;242.32;229.38;;;11.70;99.90;;;;;;5031558;28;20057;-76
2024/02/19 05:28:34;;;;;;;258.17;244.23;;;11.60;99.90;;;;;;5033954;28;20029;-76
2024/02/19 05:31:01;;;;;;;183.98;174.05;;;11.60;99.90;;;;;;5033121;28;20048;-76
2024/02/19 05:33:28;;;;;;;186.80;176.40;;;11.60;99.90;;;;;;5032740;28;20026;-76
2024/02/19 05:35:54;;;;;;;256.20;242.05;;;11.70;99.90;;;;;;5032498;28;20394;-76
2024/02/19 05:38:20;;;;;;;295.85;278.90;;;11.60;99.90;;;;;;5032025;28;20045;-76
2024/02/19 05:40:46;;;;;;;266.88;251.48;;;11.60;99.90;;;;;;5032954;28;20392;-76
2024/02/19 05:43:12;;;;;;;186.10;176.38;;;11.50;99.90;;;;;;5031316;28;20052;-76
2024/02/19 05:45:38;;;;;;;244.02;230.25;;;11.40;99.90;;;;;;5032632;28;20040;-76
2024/02/19 05:48:05;;;;;;;249.27;235.25;;;11.50;99.90;;;;;;5032932;28;20045;-76
2024/02/19 05:50:32;;;;;;;223.77;211.68;;;11.50;99.90;;;;;;5033246;28;20029;-76
2024/02/19 05:52:58;;;;;;;283.83;267.95;;;11.60;99.90;;;;;;5033442;28;20038;-76
2024/02/19 05:55:24;;;;;;;264.83;250.00;;;11.70;99.90;;;;;;5032697;28;20041;-76
2024/02/19 05:57:50;;;;;;;251.98;237.88;;;11.80;99.90;;;;;;5033317;28;20033;-76
2024/02/19 06:00:16;;;;;;;286.50;270.55;;;11.80;99.90;;;;;;5032354;28;20029;-76
2024/02/19 06:02:42;;;;;;;196.88;186.52;;;11.70;99.90;;;;;;5033364;28;20042;-76
2024/02/19 06:05:11;;;;;;;217.57;206.18;;;11.70;99.90;;;;;;5032378;28;20589;-76
2024/02/19 06:07:38;;;;;;;259.27;244.93;;;11.60;99.90;;;;;;5033174;28;20045;-76
2024/02/19 06:10:04;;;;;;;242.80;229.15;;;11.70;99.90;;;;;;5032890;28;20036;-76
2024/02/19 06:12:30;;;;;;;206.07;194.50;;;11.70;99.90;;;;;;5031980;28;20418;-76
2024/02/19 06:14:56;;;;;;;222.27;210.05;;;11.80;99.90;;;;;;5032996;28;20045;-76
2024/02/19 06:17:22;;;;;;;246.20;232.77;;;11.80;99.90;;;;;;5032202;28;20034;-76
2024/02/19 06:19:49;;;;;;;700.42;439.38;;;11.80;99.90;;;;;;5032970;28;20037;-77
2024/02/19 06:22:15;;;;;;;259.05;245.07;;;11.70;99.90;;;;;;5032486;28;20026;-76
2024/02/19 06:24:41;;;;;;;246.15;232.55;;;11.80;99.90;;;;;;5032331;28;20064;-77
2024/02/19 06:27:07;;;;;;;301.10;283.73;;;11.70;99.90;;;;;;5032394;28;20037;-76
2024/02/19 06:29:33;;;;;;;386.38;362.90;;;11.70;99.90;;;;;;5032702;28;20060;-76
2024/02/19 06:31:59;;;;;;;282.30;266.60;;;11.60;99.90;;;;;;5031277;28;20038;-76
2024/02/19 06:34:26;;;;;;;256.17;241.80;;;11.50;99.90;;;;;;5032047;28;20565;-76
2024/02/19 06:36:52;;;;;;;291.45;274.23;;;11.50;99.90;;;;;;5032164;28;20033;-76
2024/02/19 06:39:20;;;;;;;257.30;242.63;;;11.50;99.90;;;;;;5032104;28;20038;-76
2024/02/19 06:41:46;;;;;;;316.13;297.13;;;11.60;99.90;;;;;;5031529;28;20048;-76
2024/02/19 06:44:12;;;;;;;250.30;236.13;;;11.70;99.90;;;;;;5032590;28;20040;-76
2024/02/19 06:46:38;;;;;;;252.85;238.52;;;11.70;99.90;;;;;;5032059;28;20068;-77
2024/02/19 06:49:05;;;;;;;275.80;260.52;;;11.80;99.90;;;;;;5032450;28;20029;-76
2024/02/19 06:51:31;;;;;;;267.33;252.10;;;11.80;99.90;;;;;;5032421;28;20033;-76
2024/02/19 06:53:57;;;;;;;256.90;242.68;;;11.90;99.90;;;;;;5032026;28;20378;-77
2024/02/19 06:56:23;;;;;;;234.95;221.55;;;11.90;99.90;;;;;;5032325;28;20048;-76
2024/02/19 06:58:49;;;;;;;260.73;246.27;;;12.00;99.90;;;;;;5032401;28;20029;-76
2024/02/19 07:01:15;;;;;;;232.90;220.20;;;12.00;99.90;;;;;;5031795;28;20049;-76
2024/02/19 07:03:44;;;;;;;235.13;222.55;;;12.00;99.90;;;;;;5031981;28;20092;-76
2024/02/19 07:06:10;;;;;;;232.57;219.88;;;11.90;99.90;;;;;;5031740;28;20501;-76
2024/02/19 07:08:36;;;;;;;261.27;246.55;;;11.90;99.90;;;;;;5030564;28;20033;-79
2024/02/19 07:11:03;;;;;;;236.23;222.95;;;11.80;99.90;;;;;;5030813;28;20410;-76
2024/02/19 07:13:29;;;;;;;278.67;262.98;;;11.80;99.90;;;;;;5032130;28;20040;-77
2024/02/19 07:15:55;;;;;;;281.27;265.38;;;11.80;99.90;;;;;;5031727;28;20406;-78
2024/02/19 07:18:21;;;;;;;284.25;268.15;;;11.70;99.90;;;;;;5032024;28;20053;-78
2024/02/19 07:20:47;;;;;;;245.55;231.77;;;11.60;99.90;;;;;;5032177;28;20033;-77
2024/02/19 07:23:13;;;;;;;224.25;211.82;;;11.60;99.90;;;;;;5031202;28;20040;-77
2024/02/19 07:25:39;;;;;;;224.73;212.40;;;11.60;99.90;;;;;;5031871;28;20534;-76
2024/02/19 07:28:05;;;;;;;244.55;230.80;;;11.50;99.90;;;;;;5030059;28;20026;-77
2024/02/19 07:30:32;;;;;;;257.40;243.18;;;11.50;99.90;;;;;;5010003;28;20038;-76
2024/02/19 07:32:58;;;;;;;248.50;233.88;;;11.60;99.90;;;;;;5012228;28;20053;-76
2024/02/19 07:35:24;;;;;;;244.32;230.30;;;11.60;99.90;;;;;;5012231;28;20026;-78
2024/02/19 07:37:50;;;;;;;177.55;167.15;;;11.60;99.90;;;;;;5012134;28;20042;-76
2024/02/19 07:40:16;;;;;;;205.90;194.25;;;11.50;99.90;;;;;;5012280;28;20026;-76
2024/02/19 07:42:42;;;;;;;221.52;208.85;;;11.50;99.90;;;;;;5014560;28;20077;-76
2024/02/19 07:45:08;;;;;;;199.68;187.93;;;11.50;99.90;;;;;;5018183;28;20034;-75
2024/02/19 07:47:34;;;;;;;196.65;184.73;;;11.50;99.90;;;;;;5035468;28;20048;-76
2024/02/19 07:50:01;;;;;;;265.15;250.07;;;11.60;99.90;;;;;;5035813;28;20029;-76
2024/02/19 07:52:27;;;;;;;280.15;264.33;;;11.60;99.90;;;;;;5035035;28;20034;-76
2024/02/19 07:54:53;;;;;;;262.40;247.75;;;11.70;99.90;;;;;;5035700;28;20505;-77
2024/02/19 07:57:19;;;;;;;210.48;198.18;;;11.70;99.90;;;;;;5035290;28;20033;-76
2024/02/19 07:59:46;;;;;;;243.77;230.05;;;11.70;99.90;;;;;;5035294;28;20026;-76
2024/02/19 08:02:12;;;;;;;261.70;247.18;;;11.70;99.90;;;;;;5033370;28;20034;-76
2024/02/19 08:04:38;;;;;;;360.13;339.25;;;11.70;99.90;;;;;;5035577;28;20032;-76
2024/02/19 08:07:04;;;;;;;301.90;284.52;;;11.60;99.90;;;;;;5034429;28;20049;-76
2024/02/19 08:09:30;;;;;;;223.15;210.65;;;11.60;99.90;;;;;;5035406;28;20029;-78
2024/02/19 08:11:57;;;;;;;274.83;259.67;;;11.60;99.90;;;;;;5034758;28;20033;-76
2024/02/19 08:14:26;;;;;;;223.23;211.23;;;11.60;99.90;;;;;;5034823;28;20029;-76
2024/02/19 08:16:53;;;;;;;1999.90;999.90;;;11.70;99.90;;;;;;5034234;28;20037;-75
2024/02/19 08:19:19;;;;;;;1999.90;999.90;;;11.80;99.90;;;;;;5035210;28;20037;-76
2024/02/19 08:21:45;;;;;;;1999.90;999.90;;;11.80;99.90;;;;;;5033358;28;20037;-76
2024/02/19 08:24:14;;;;;;;1999.90;999.90;;;11.80;99.90;;;;;;5033660;28;20033;-76
2024/02/19 08:26:40;;;;;;;1999.90;999.90;;;11.90;99.90;;;;;;5034919;28;20064;-76
2024/02/19 08:29:07;;;;;;;1999.90;999.90;;;12.00;99.90;;;;;;5033799;28;20033;-76
2024/02/19 08:31:33;;;;;;;1999.90;999.90;;;12.20;99.90;;;;;;5034272;28;20048;-76
2024/02/19 08:33:59;;;;;;;698.75;437.60;;;12.20;99.90;;;;;;5034995;28;20030;-76
2024/02/19 08:36:25;;;;;;;266.30;251.38;;;12.20;99.90;;;;;;5034157;28;20033;-76
2024/02/19 08:38:55;;;;;;;1999.90;999.90;;;12.20;99.90;;;;;;5033633;28;20021;-76
2024/02/19 08:41:21;;;;;;;1999.90;999.90;;;12.20;99.90;;;;;;5034282;28;20380;-76
2024/02/19 08:43:47;;;;;;;1999.90;999.90;;;12.30;99.90;;;;;;5033217;28;20037;-76
2024/02/19 08:46:14;;;;;;;1999.90;999.90;;;12.40;99.90;;;;;;5033522;28;20053;-76
2024/02/19 08:48:41;;;;;;;1999.90;999.90;;;12.30;99.90;;;;;;5034409;28;20037;-76
2024/02/19 08:51:08;;;;;;;1999.90;999.90;;;12.40;99.90;;;;;;5034295;28;20041;-76
2024/02/19 08:53:34;;;;;;;1999.90;999.90;;;12.30;99.90;;;;;;5032143;28;20041;-76
2024/02/19 08:56:00;;;;;;;1999.90;999.90;;;12.30;99.90;;;;;;5033819;28;20037;-76
2024/02/19 08:58:28;;;;;;;1999.90;999.90;;;12.20;99.90;;;;;;5034432;28;20030;-76
2024/02/19 09:00:57;;;;;;;1999.90;999.90;;;12.20;99.90;;;;;;5033283;28;20030;-76
2024/02/19 09:03:24;;;;;;;1999.90;999.90;;;12.30;99.90;;;;;;5034057;28;20053;-78
2024/02/19 09:05:50;;;;;;;1999.90;999.90;;;12.30;99.90;;;;;;5033994;28;20041;-78
2024/02/19 09:08:16;;;;;;;1999.90;999.90;;;12.30;99.90;;;;;;5034277;28;20396;-78
2024/02/19 09:10:44;;;;;;;1999.90;999.90;;;12.40;99.90;;;;;;5034107;28;20033;-78
2024/02/19 09:13:10;;;;;;;1999.90;999.90;;;12.40;99.90;;;;;;5033454;28;20489;-76
2024/02/19 09:15:36;;;;;;;1999.90;999.90;;;12.40;99.90;;;;;;5033394;28;20041;-76
2024/02/19 09:18:03;;;;;;;1999.90;999.90;;;12.30;99.90;;;;;;5033859;28;20022;-76
2024/02/19 09:20:29;;;;;;;1999.90;999.90;;;12.20;99.90;;;;;;5033102;28;20046;-76
2024/02/19 09:22:55;;;;;;;1999.90;999.90;;;12.10;99.90;;;;;;5033525;28;20073;-76
2024/02/19 09:25:23;;;;;;;1999.90;999.90;;;12.20;99.90;;;;;;5033698;28;20033;-76
2024/02/19 09:27:49;;;;;;;1999.90;999.90;;;12.10;99.90;;;;;;5033452;28;20080;-76
2024/02/19 09:30:16;;;;;;;1183.28;672.60;;;12.10;99.90;;;;;;5032737;28;20046;-76
2024/02/19 09:32:42;;;;;;;1999.90;999.90;;;12.10;99.90;;;;;;5033568;28;20053;-76
2024/02/19 09:35:08;;;;;;;1999.90;999.90;;;12.10;99.90;;;;;;5033395;28;20045;-76
2024/02/19 09:37:34;;;;;;;1999.90;999.90;;;12.20;99.90;;;;;;5033461;28;20030;-76
2024/02/19 09:40:06;;;;;;;1999.90;999.90;;;12.30;99.90;;;;;;5033752;28;20041;-76
2024/02/19 09:42:32;;;;;;;1999.90;999.90;;;12.30;99.90;;;;;;5033279;28;20053;-76
2024/02/19 09:44:58;;;;;;;1175.07;664.38;;;12.30;99.90;;;;;;5032237;28;20501;-76
2024/02/19 09:47:25;;;;;;;1999.90;999.90;;;12.30;99.90;;;;;;5030676;28;20045;-76
2024/02/19 09:49:51;;;;;;;1166.63;656.20;;;12.30;99.90;;;;;;5033502;28;20384;-76
2024/02/19 09:52:26;;;;;;;688.65;428.08;;;12.30;99.90;;;;;;5030945;28;20372;-76
2024/02/19 09:54:52;;;;;;;739.05;475.30;;;12.30;99.90;;;;;;5031591;28;20037;-78
2024/02/19 09:57:19;;;;;;;251.63;237.65;;;12.20;99.90;;;;;;5031336;28;20081;-78
2024/02/19 09:59:45;;;;;;;1999.90;999.90;;;12.10;99.90;;;;;;5033223;28;20025;-78
2024/02/19 10:02:12;;;;;;;729.28;465.80;;;12.00;99.90;;;;;;5031915;28;20060;-78
2024/02/19 10:04:39;;;;;;;260.08;244.73;;;12.00;99.90;;;;;;5031503;28;20041;-76
2024/02/19 10:07:05;;;;;;;339.75;319.17;;;12.00;99.90;;;;;;5032796;28;20116;-76
2024/02/19 10:09:31;;;;;;;226.00;213.52;;;11.90;99.90;;;;;;5033190;28;20422;-76
2024/02/19 10:11:57;;;;;;;188.60;178.23;;;11.90;99.90;;;;;;5032847;28;20505;-76
2024/02/19 10:14:24;;;;;;;206.23;194.70;;;11.90;99.90;;;;;;5032793;28;20029;-76
2024/02/19 10:16:50;;;;;;;235.13;221.88;;;12.00;99.90;;;;;;5031905;28;20044;-76
2024/02/19 10:19:17;;;;;;;251.80;237.23;;;12.10;99.90;;;;;;5033055;28;20032;-76
2024/02/19 10:21:48;;;;;;;719.20;456.48;;;12.00;99.90;;;;;;5032397;28;20052;-76
2024/02/19 10:24:19;;;;;;;322.25;303.23;;;12.00;99.90;;;;;;5032423;28;20394;-76
2024/02/19 10:26:46;;;;;;;269.25;254.18;;;12.00;99.90;;;;;;5030911;28;20067;-76
2024/02/19 10:29:13;;;;;;;283.65;267.83;;;12.00;99.90;;;;;;5032353;28;20037;-78
2024/02/19 10:31:41;;;;;;;219.13;207.23;;;12.00;99.90;;;;;;5031317;28;20042;-78
2024/02/19 10:34:13;;;;;;;275.30;259.92;;;12.10;99.90;;;;;;5030780;28;20033;-78
2024/02/19 10:36:39;;;;;;;269.05;254.75;;;12.10;99.90;;;;;;5032083;28;20052;-78
2024/02/19 10:39:05;;;;;;;349.40;329.10;;;12.10;99.90;;;;;;5015107;28;20022;-76
2024/02/19 10:41:34;;;;;;;759.33;494.75;;;12.10;99.90;;;;;;5014605;28;20045;-76
2024/02/19 10:44:00;;;;;;;326.42;307.23;;;12.10;99.90;;;;;;5031125;28;20378;-76
2024/02/19 10:46:26;;;;;;;715.72;453.63;;;12.10;99.90;;;;;;5031340;28;20413;-76
2024/02/19 10:48:52;;;;;;;373.95;352.45;;;12.10;99.90;;;;;;5014759;28;20029;-76
2024/02/19 10:51:23;;;;;;;334.80;314.65;;;12.10;99.90;;;;;;5031681;28;20048;-76
2024/02/19 10:54:03;;;;;;;374.75;352.08;;;12.10;99.90;;;;;;5032208;28;20053;-76
2024/02/19 10:56:39;;;;;;;323.45;304.17;;;12.10;99.90;;;;;;5031618;28;20045;-77
2024/02/19 10:59:08;;;;;;;346.63;326.00;;;12.10;99.90;;;;;;5013478;28;20044;-78
2024/02/19 11:01:43;;;;;;;392.73;370.10;;;12.10;99.90;;;;;;5030994;28;20049;-78
2024/02/19 11:04:15;;;;;;;314.27;296.08;;;12.20;99.90;;;;;;5030358;28;20033;-78
2024/02/19 11:06:48;;;;;;;369.95;347.38;;;12.10;99.90;;;;;;5031979;28;20041;-78
2024/02/19 11:09:14;;;;;;;368.35;345.98;;;12.10;99.90;;;;;;5032242;28;20036;-78
2024/02/19 11:11:55;;;;;;;312.52;295.17;;;12.10;99.90;;;;;;5024096;28;20034;-73
2024/02/19 11:14:32;;;;;;;277.17;261.40;;;12.20;99.90;;;;;;5022401;28;20040;-74
2024/02/19 11:16:59;;;;;;;459.48;432.25;;;12.30;99.90;;;;;;5028589;28;20034;-78
2024/02/19 11:19:26;;;;;;;1999.90;999.90;;;12.30;99.90;;;;;;5029635;28;20021;-78
2024/02/19 11:22:09;;;;;;;788.85;521.28;;;12.40;99.90;;;;;;5019796;28;20029;-75
2024/02/19 11:24:36;;;;;;;761.65;495.95;;;12.40;99.90;;;;;;5028790;28;20025;-79
2024/02/19 11:27:03;;;;;;;363.00;341.10;;;12.30;99.90;;;;;;5029334;28;20037;-79
2024/02/19 11:29:29;;;;;;;316.65;297.90;;;12.30;99.90;;;;;;5030775;28;20037;-80
2024/02/19 11:32:02;;;;;;;743.60;479.52;;;12.30;99.90;;;;;;5027244;28;20040;-79
2024/02/19 11:34:29;;;;;;;262.52;246.50;;;12.30;99.90;;;;;;5031249;28;20045;-79
2024/02/19 11:37:02;;;;;;;1999.90;999.90;;;12.30;99.90;;;;;;5031137;28;20033;-79
2024/02/19 11:39:30;;;;;;;1999.90;999.90;;;12.30;99.90;;;;;;5030221;28;20029;-79
2024/02/19 11:42:00;;;;;;;680.05;420.35;;;12.20;99.90;;;;;;5027432;28;20049;-80
2024/02/19 11:44:27;;;;;;;1999.90;999.90;;;12.20;99.90;;;;;;5028826;28;20045;-79
2024/02/19 11:46:54;;;;;;;1999.90;999.90;;;12.20;99.90;;;;;;5023347;28;20406;-79
2024/02/19 11:49:20;;;;;;;679.65;420.05;;;12.20;99.90;;;;;;5029521;28;20048;-80
2024/02/19 11:51:47;;;;;;;1999.90;999.90;;;12.10;99.90;;;;;;5021658;28;20038;-79
2024/02/19 11:54:15;;;;;;;1999.90;999.90;;;12.20;99.90;;;;;;5014544;28;20034;-79
2024/02/19 11:57:03;;;;;;;1999.90;999.90;;;12.20;99.90;;;;;;5023490;28;20052;-80
2024/02/19 11:59:30;;;;;;;381.27;358.02;;;12.10;99.90;;;;;;5030850;28;20033;-79
2024/02/19 12:01:56;;;;;;;629.42;372.20;;;12.20;99.90;;;;;;5024132;28;20048;-80